createdAt,value
2022-08-29T00:01:12.665Z,14.43
2022-08-29T00:03:41.041Z,14.44
2022-08-29T00:06:09.372Z,14.38
2022-08-29T00:08:36.522Z,14.40
2022-08-29T00:11:06.627Z,14.45
2022-08-29T00:13:34.999Z,14.40
2022-08-29T00:16:02.313Z,14.37
2022-08-29T00:18:29.684Z,14.31
2022-08-29T00:20:56.917Z,14.35
2022-08-29T00:23:24.418Z,14.32
2022-08-29T00:25:51.525Z,14.24
2022-08-29T00:28:18.793Z,14.16
2022-08-29T00:30:46.638Z,14.10
2022-08-29T00:33:13.713Z,14.08
2022-08-29T00:35:42.985Z,14.03
2022-08-29T00:38:13.620Z,14.03
2022-08-29T00:40:51.696Z,13.91
2022-08-29T00:43:22.371Z,13.89
2022-08-29T00:46:34.693Z,13.79
2022-08-29T00:49:11.888Z,13.72
2022-08-29T00:51:41.101Z,13.67
2022-08-29T00:54:10.813Z,13.66
2022-08-29T00:56:40.044Z,13.54
2022-08-29T00:59:16.479Z,13.56
2022-08-29T01:01:44.403Z,13.50
2022-08-29T01:04:14.728Z,13.45
2022-08-29T01:06:43.356Z,13.40
2022-08-29T01:09:11.099Z,13.42
2022-08-29T01:11:57.332Z,13.35
2022-08-29T01:14:27.146Z,13.33
2022-08-29T01:16:57.682Z,13.28
2022-08-29T01:19:44.866Z,13.20
2022-08-29T01:22:34.848Z,13.15
2022-08-29T01:25:06.056Z,13.16
2022-08-29T01:27:36.954Z,13.14
2022-08-29T01:30:06.847Z,13.09
2022-08-29T01:32:34.103Z,13.04
2022-08-29T01:35:01.795Z,13.04
2022-08-29T01:37:33.228Z,13.00
2022-08-29T01:40:00.447Z,13.01
2022-08-29T01:42:27.607Z,13.01
2022-08-29T01:45:00.850Z,13.07
2022-08-29T01:47:32.096Z,13.05
2022-08-29T01:49:59.495Z,13.05
2022-08-29T01:52:26.631Z,13.10
2022-08-29T01:54:54.021Z,13.12
2022-08-29T01:57:21.773Z,13.05
2022-08-29T01:59:49.273Z,13.10
2022-08-29T02:02:27.355Z,13.04
2022-08-29T02:04:58.739Z,13.01
2022-08-29T02:07:26.541Z,13.06
2022-08-29T02:09:53.968Z,13.01
2022-08-29T02:12:21.638Z,12.99
2022-08-29T02:14:50.760Z,13.02
2022-08-29T02:17:18.033Z,12.97
2022-08-29T02:19:46.027Z,12.93
2022-08-29T02:22:13.361Z,12.96
2022-08-29T02:24:41.651Z,12.92
2022-08-29T02:27:10.407Z,12.97
2022-08-29T02:29:38.398Z,12.86
2022-08-29T02:32:11.981Z,12.87
2022-08-29T02:34:40.312Z,12.88
2022-08-29T02:37:13.016Z,12.90
2022-08-29T02:39:40.128Z,12.88
2022-08-29T02:42:07.455Z,12.78
2022-08-29T02:44:34.637Z,12.75
2022-08-29T02:47:01.926Z,12.70
2022-08-29T02:49:29.212Z,12.60
2022-08-29T02:51:57.681Z,12.61
2022-08-29T02:54:24.849Z,12.47
2022-08-29T02:56:52.319Z,12.45
2022-08-29T02:59:19.486Z,12.44
2022-08-29T03:01:46.655Z,12.46
2022-08-29T03:04:13.917Z,12.47
2022-08-29T03:06:41.138Z,12.46
2022-08-29T03:09:08.275Z,12.51
2022-08-29T03:11:35.603Z,12.48
2022-08-29T03:14:02.923Z,12.44
2022-08-29T03:16:30.490Z,12.43
2022-08-29T03:18:57.759Z,12.42
2022-08-29T03:21:26.730Z,12.37
2022-08-29T03:23:56.377Z,12.38
2022-08-29T03:26:24.362Z,12.39
2022-08-29T03:28:51.937Z,12.36
2022-08-29T03:31:19.200Z,12.36
2022-08-29T03:33:46.577Z,12.36
2022-08-29T03:36:14.905Z,12.35
2022-08-29T03:38:43.664Z,12.39
2022-08-29T03:41:11.351Z,12.40
2022-08-29T03:43:38.740Z,12.37
2022-08-29T03:46:06.131Z,12.35
2022-08-29T03:48:33.838Z,12.28
2022-08-29T03:51:01.331Z,12.27
2022-08-29T03:53:28.669Z,12.23
2022-08-29T03:55:58.003Z,12.14
2022-08-29T03:58:25.177Z,12.13
2022-08-29T04:00:52.456Z,12.11
2022-08-29T04:03:20.322Z,12.13
2022-08-29T04:05:55.202Z,12.09
2022-08-29T04:08:22.464Z,12.21
2022-08-29T04:10:49.969Z,12.20
2022-08-29T04:13:17.119Z,12.23
2022-08-29T04:15:44.353Z,12.30
2022-08-29T04:18:12.072Z,12.33
2022-08-29T04:20:44.764Z,12.42
2022-08-29T04:23:15.388Z,12.46
2022-08-29T04:25:44.145Z,12.45
2022-08-29T04:28:13.762Z,12.36
2022-08-29T04:30:51.476Z,12.35
2022-08-29T04:33:22.712Z,12.28
2022-08-29T04:35:51.614Z,12.37
2022-08-29T04:38:19.484Z,12.27
2022-08-29T04:40:47.658Z,12.26
2022-08-29T04:43:14.983Z,12.33
2022-08-29T04:45:42.433Z,12.25
2022-08-29T04:48:10.920Z,12.24
2022-08-29T04:50:38.313Z,12.28
2022-08-29T04:53:05.565Z,12.31
2022-08-29T04:55:33.083Z,12.32
2022-08-29T04:58:00.507Z,12.33
2022-08-29T05:00:30.237Z,12.40
2022-08-29T05:02:58.135Z,12.43
2022-08-29T05:05:26.029Z,12.33
2022-08-29T05:07:53.834Z,12.34
2022-08-29T05:10:22.507Z,12.32
2022-08-29T05:12:49.779Z,12.34
2022-08-29T05:15:17.484Z,12.43
2022-08-29T05:17:45.830Z,12.28
2022-08-29T05:20:13.566Z,12.30
2022-08-29T05:22:42.180Z,12.31
2022-08-29T05:25:17.290Z,12.34
2022-08-29T05:27:45.983Z,12.37
2022-08-29T05:30:14.097Z,12.49
2022-08-29T05:32:41.316Z,12.49
2022-08-29T05:35:09.386Z,12.45
2022-08-29T05:37:37.387Z,12.55
2022-08-29T05:40:05.481Z,12.71
2022-08-29T05:42:34.048Z,12.65
2022-08-29T05:45:04.159Z,12.70
2022-08-29T05:47:33.361Z,12.72
2022-08-29T05:50:01.975Z,12.83
2022-08-29T05:52:29.586Z,12.92
2022-08-29T05:54:56.815Z,12.83
2022-08-29T05:57:24.515Z,12.94
2022-08-29T05:59:53.661Z,12.99
2022-08-29T06:02:22.296Z,12.98
2022-08-29T06:04:50.318Z,13.03
2022-08-29T06:07:18.011Z,13.06
2022-08-29T06:09:45.412Z,13.20
2022-08-29T06:12:15.446Z,13.22
2022-08-29T06:14:50.406Z,13.42
2022-08-29T06:17:18.414Z,13.59
2022-08-29T06:19:45.767Z,13.72
2022-08-29T06:22:13.385Z,13.78
2022-08-29T06:24:44.428Z,13.93
2022-08-29T06:27:13.096Z,14.07
2022-08-29T06:29:43.691Z,14.26
2022-08-29T06:32:12.470Z,14.72
2022-08-29T06:34:40.667Z,15.02
2022-08-29T06:37:08.666Z,15.35
2022-08-29T06:39:36.217Z,15.32
2022-08-29T06:42:03.767Z,15.24
2022-08-29T06:44:31.464Z,15.19
2022-08-29T06:46:59.614Z,14.81
2022-08-29T06:49:27.982Z,14.92
2022-08-29T06:51:58.431Z,14.72
2022-08-29T06:54:28.196Z,14.74
2022-08-29T06:56:57.633Z,14.82
2022-08-29T06:59:25.367Z,14.89
2022-08-29T07:01:54.365Z,15.00
2022-08-29T07:04:21.756Z,15.12
2022-08-29T07:06:50.439Z,15.21
2022-08-29T07:09:17.890Z,15.20
2022-08-29T07:11:45.473Z,15.33
2022-08-29T07:14:13.461Z,15.36
2022-08-29T07:16:41.446Z,15.34
2022-08-29T07:19:10.322Z,15.26
2022-08-29T07:21:37.919Z,15.43
2022-08-29T07:24:06.337Z,15.57
2022-08-29T07:26:42.089Z,15.59
2022-08-29T07:29:20.543Z,15.38
2022-08-29T07:31:48.747Z,15.47
2022-08-29T07:34:20.268Z,15.47
2022-08-29T07:36:48.145Z,15.51
2022-08-29T07:39:17.961Z,15.48
2022-08-29T07:41:45.438Z,15.55
2022-08-29T07:44:13.850Z,15.68
2022-08-29T07:46:41.734Z,15.85
2022-08-29T07:49:09.181Z,15.94
2022-08-29T07:51:36.557Z,15.93
2022-08-29T07:54:04.453Z,16.06
2022-08-29T07:56:38.055Z,16.06
2022-08-29T07:59:06.211Z,16.08
2022-08-29T08:01:33.760Z,16.27
2022-08-29T08:04:01.308Z,16.49
2022-08-29T08:06:28.440Z,16.58
2022-08-29T08:08:58.035Z,16.59
2022-08-29T08:11:26.330Z,16.44
2022-08-29T08:13:55.237Z,16.58
2022-08-29T08:16:25.092Z,16.70
2022-08-29T08:18:52.925Z,16.74
2022-08-29T08:21:20.635Z,16.81
2022-08-29T08:23:48.352Z,17.06
2022-08-29T08:26:16.239Z,17.16
2022-08-29T08:28:43.926Z,17.14
2022-08-29T08:31:12.225Z,17.14
2022-08-29T08:33:42.660Z,17.28
2022-08-29T08:36:23.242Z,17.40
2022-08-29T08:38:52.189Z,17.24
2022-08-29T08:41:29.676Z,17.13
2022-08-29T08:44:32.975Z,17.38
2022-08-29T08:47:07.426Z,17.45
2022-08-29T08:49:39.819Z,17.66
2022-08-29T08:52:16.051Z,17.55
2022-08-29T08:54:52.006Z,17.61
2022-08-29T08:57:21.390Z,17.67
2022-08-29T08:59:57.378Z,18.00
2022-08-29T09:02:35.396Z,18.32
2022-08-29T09:05:29.821Z,18.33
2022-08-29T09:08:14.549Z,18.39
2022-08-29T09:11:03.883Z,18.21
2022-08-29T09:13:59.586Z,18.55
2022-08-29T09:16:34.713Z,18.66
2022-08-29T09:19:09.536Z,18.56
2022-08-29T09:21:48.419Z,18.21
2022-08-29T09:24:29.052Z,18.04
2022-08-29T09:26:56.442Z,18.09
2022-08-29T09:29:28.171Z,18.35
2022-08-29T09:32:11.132Z,18.41
2022-08-29T09:35:06.782Z,18.06
2022-08-29T09:37:34.993Z,18.26
2022-08-29T09:40:12.546Z,18.52
2022-08-29T09:42:51.976Z,18.70
2022-08-29T09:45:25.098Z,18.75
2022-08-29T09:48:10.521Z,18.84
2022-08-29T09:50:38.281Z,18.60
2022-08-29T09:53:09.758Z,18.62
2022-08-29T09:55:52.447Z,18.86
2022-08-29T09:58:20.054Z,18.86
2022-08-29T10:01:11.679Z,19.01
2022-08-29T10:03:44.385Z,19.05
2022-08-29T10:06:16.550Z,19.13
2022-08-29T10:09:00.118Z,19.19
2022-08-29T10:11:42.115Z,19.21
2022-08-29T10:14:22.768Z,19.25
2022-08-29T10:17:26.670Z,19.19
2022-08-29T10:19:53.876Z,19.33
2022-08-29T10:22:35.947Z,19.40
2022-08-29T10:25:26.489Z,19.55
2022-08-29T10:28:05.194Z,19.79
2022-08-29T10:30:58.860Z,19.92
2022-08-29T10:33:44.468Z,19.94
2022-08-29T10:36:20.762Z,19.86
2022-08-29T10:39:01.810Z,19.86
2022-08-29T10:41:29.058Z,20.01
2022-08-29T10:43:56.261Z,19.85
2022-08-29T10:46:51.325Z,20.04
2022-08-29T10:49:30.404Z,20.01
2022-08-29T10:52:10.795Z,19.74
2022-08-29T10:55:19.670Z,19.62
2022-08-29T10:57:53.570Z,19.55
2022-08-29T11:00:24.594Z,19.68
2022-08-29T11:03:08.559Z,19.79
2022-08-29T11:05:43.060Z,19.99
2022-08-29T11:08:18.293Z,20.17
2022-08-29T11:10:50.212Z,20.24
2022-08-29T11:13:26.461Z,20.20
2022-08-29T11:16:14.018Z,20.55
2022-08-29T11:18:48.219Z,20.68
2022-08-29T11:21:34.709Z,20.26
2022-08-29T11:24:04.238Z,20.32
2022-08-29T11:26:34.792Z,20.46
2022-08-29T11:29:15.591Z,20.14
2022-08-29T11:32:09.762Z,20.09
2022-08-29T11:35:14.064Z,20.18
2022-08-29T11:37:50.193Z,20.40
2022-08-29T11:41:26.367Z,20.89
2022-08-29T11:43:37.202Z,21.04
2022-08-29T11:46:07.863Z,21.12
2022-08-29T11:48:39.692Z,21.01
2022-08-29T11:51:37.710Z,20.99
2022-08-29T11:54:37.077Z,20.80
2022-08-29T11:57:04.468Z,20.59
2022-08-29T11:59:50.795Z,20.50
2022-08-29T12:02:33.213Z,20.85
2022-08-29T12:05:29.876Z,20.82
2022-08-29T12:08:36.958Z,20.99
2022-08-29T12:11:06.318Z,21.11
2022-08-29T12:13:48.796Z,20.83
2022-08-29T12:16:19.498Z,20.93
2022-08-29T12:18:52.817Z,20.78
2022-08-29T12:21:36.030Z,20.73
2022-08-29T12:24:05.447Z,20.72
2022-08-29T12:26:38.481Z,20.69
2022-08-29T12:29:10.297Z,20.67
2022-08-29T12:32:22.989Z,20.88
2022-08-29T12:35:27.526Z,21.00
2022-08-29T12:38:03.194Z,21.11
2022-08-29T12:40:45.195Z,21.07
2022-08-29T12:43:26.123Z,20.96
2022-08-29T12:45:55.395Z,20.97
2022-08-29T12:48:31.928Z,20.85
2022-08-29T12:51:00.736Z,20.76
2022-08-29T12:53:35.006Z,20.69
2022-08-29T12:56:16.676Z,20.82
2022-08-29T12:58:52.922Z,20.53
2022-08-29T13:01:25.792Z,20.46
2022-08-29T13:04:06.478Z,20.57
2022-08-29T13:06:34.406Z,20.75
2022-08-29T13:09:02.484Z,20.78
2022-08-29T13:11:32.145Z,20.92
2022-08-29T13:14:12.226Z,21.09
2022-08-29T13:16:40.209Z,21.34
2022-08-29T13:19:21.424Z,21.29
2022-08-29T13:21:48.693Z,21.21
2022-08-29T13:24:20.751Z,20.89
2022-08-29T13:27:04.925Z,21.01
2022-08-29T13:29:39.856Z,20.95
2022-08-29T13:32:26.771Z,20.96
2022-08-29T13:35:06.323Z,21.00
2022-08-29T13:37:37.182Z,21.15
2022-08-29T13:40:41.891Z,21.12
2022-08-29T13:43:37.071Z,20.72
2022-08-29T13:46:15.532Z,20.73
2022-08-29T13:48:43.944Z,20.72
2022-08-29T13:51:11.851Z,20.83
2022-08-29T13:53:39.119Z,20.90
2022-08-29T13:56:23.322Z,20.94
2022-08-29T13:58:51.302Z,20.93
2022-08-29T14:01:30.548Z,20.90
2022-08-29T14:04:03.470Z,20.84
2022-08-29T14:06:33.118Z,20.99
2022-08-29T14:09:02.031Z,21.11
2022-08-29T14:11:29.691Z,21.12
2022-08-29T14:13:56.974Z,21.04
2022-08-29T14:16:24.987Z,21.04
2022-08-29T14:18:53.755Z,21.10
2022-08-29T14:21:20.904Z,21.28
2022-08-29T14:23:48.571Z,21.15
2022-08-29T14:26:15.605Z,21.08
2022-08-29T14:28:48.012Z,20.93
2022-08-29T14:31:15.442Z,20.83
2022-08-29T14:33:42.837Z,21.13
2022-08-29T14:36:12.439Z,21.51
2022-08-29T14:38:39.533Z,21.65
2022-08-29T14:41:06.870Z,21.68
2022-08-29T14:43:39.632Z,21.62
2022-08-29T14:46:07.937Z,21.64
2022-08-29T14:48:35.622Z,21.83
2022-08-29T14:51:02.905Z,21.85
2022-08-29T14:53:30.951Z,21.88
2022-08-29T14:56:01.112Z,21.55
2022-08-29T14:58:28.438Z,21.42
2022-08-29T15:00:58.706Z,21.42
2022-08-29T15:03:26.014Z,21.68
2022-08-29T15:05:53.428Z,21.74
2022-08-29T15:08:20.793Z,21.94
2022-08-29T15:10:48.271Z,22.03
2022-08-29T15:13:15.428Z,21.78
2022-08-29T15:15:42.799Z,21.62
2022-08-29T15:18:23.499Z,21.46
2022-08-29T15:20:58.157Z,21.19
2022-08-29T15:23:26.223Z,21.19
2022-08-29T15:25:53.971Z,21.03
2022-08-29T15:28:21.130Z,21.21
2022-08-29T15:30:49.148Z,21.33
2022-08-29T15:33:16.421Z,21.48
2022-08-29T15:35:43.567Z,21.63
2022-08-29T15:38:10.661Z,21.81
2022-08-29T15:40:37.877Z,21.85
2022-08-29T15:43:05.171Z,21.84
2022-08-29T15:45:32.357Z,21.93
2022-08-29T15:48:00.400Z,21.93
2022-08-29T15:50:28.653Z,21.87
2022-08-29T15:52:56.077Z,21.69
2022-08-29T15:55:23.648Z,21.67
2022-08-29T15:57:52.419Z,21.58
2022-08-29T16:00:30.514Z,21.55
2022-08-29T16:03:02.796Z,21.50
2022-08-29T16:05:31.691Z,21.36
2022-08-29T16:07:59.262Z,21.34
2022-08-29T16:10:26.581Z,21.37
2022-08-29T16:12:53.995Z,21.51
2022-08-29T16:15:21.390Z,21.48
2022-08-29T16:17:48.991Z,21.30
2022-08-29T16:20:16.331Z,21.24
2022-08-29T16:22:43.554Z,21.20
2022-08-29T16:25:12.553Z,21.26
2022-08-29T16:27:40.164Z,21.09
2022-08-29T16:30:09.840Z,20.85
2022-08-29T16:32:37.543Z,20.76
2022-08-29T16:35:06.402Z,20.61
2022-08-29T16:37:34.214Z,20.62
2022-08-29T16:40:01.682Z,20.65
2022-08-29T16:42:30.690Z,20.70
2022-08-29T16:44:59.834Z,20.70
2022-08-29T16:47:27.960Z,20.69
2022-08-29T16:49:55.161Z,20.54
2022-08-29T16:52:22.336Z,20.41
2022-08-29T16:54:50.719Z,20.34
2022-08-29T16:57:21.456Z,20.27
2022-08-29T16:59:48.642Z,20.23
2022-08-29T17:02:16.260Z,20.08
2022-08-29T17:04:43.490Z,19.97
2022-08-29T17:07:10.656Z,19.84
2022-08-29T17:09:37.833Z,19.71
2022-08-29T17:12:05.232Z,19.54
2022-08-29T17:14:34.240Z,19.51
2022-08-29T17:17:03.000Z,19.48
2022-08-29T17:19:33.308Z,19.42
2022-08-29T17:22:00.951Z,19.44
2022-08-29T17:24:28.325Z,19.45
2022-08-29T17:26:55.643Z,19.39
2022-08-29T17:29:23.094Z,19.41
2022-08-29T17:31:50.255Z,19.27
2022-08-29T17:34:18.028Z,19.15
2022-08-29T17:36:45.096Z,19.08
2022-08-29T17:39:12.770Z,19.01
2022-08-29T17:41:40.153Z,18.94
2022-08-29T17:44:09.966Z,18.80
2022-08-29T17:46:37.349Z,18.75
2022-08-29T17:49:07.936Z,18.67
2022-08-29T17:51:36.387Z,18.59
2022-08-29T17:54:08.474Z,18.54
2022-08-29T17:56:47.688Z,18.45
2022-08-29T17:59:16.316Z,18.34
2022-08-29T18:01:43.595Z,18.25
2022-08-29T18:04:11.527Z,18.20
2022-08-29T18:06:38.992Z,18.13
2022-08-29T18:09:07.160Z,18.15
2022-08-29T18:11:38.474Z,18.08
2022-08-29T18:14:05.757Z,18.06
2022-08-29T18:16:32.991Z,17.99
2022-08-29T18:19:00.284Z,17.94
2022-08-29T18:21:29.507Z,17.86
2022-08-29T18:23:57.802Z,17.85
2022-08-29T18:26:26.291Z,17.76
2022-08-29T18:28:54.717Z,17.71
2022-08-29T18:31:22.181Z,17.72
2022-08-29T18:34:04.887Z,17.63
2022-08-29T18:36:33.779Z,17.54
2022-08-29T18:39:02.129Z,17.50
2022-08-29T18:41:29.745Z,17.45
2022-08-29T18:43:58.859Z,17.40
2022-08-29T18:46:27.351Z,17.31
2022-08-29T18:48:54.627Z,17.36
2022-08-29T18:51:21.852Z,17.29
2022-08-29T18:53:49.086Z,17.20
2022-08-29T18:56:16.371Z,17.12
2022-08-29T18:58:44.677Z,17.08
2022-08-29T19:01:27.932Z,17.09
2022-08-29T19:03:57.818Z,17.09
2022-08-29T19:06:25.901Z,17.10
2022-08-29T19:08:55.352Z,17.11
2022-08-29T19:11:22.707Z,17.11
2022-08-29T19:13:52.349Z,17.09
2022-08-29T19:16:21.091Z,16.89
2022-08-29T19:18:48.584Z,16.80
2022-08-29T19:21:15.970Z,16.72
2022-08-29T19:23:47.168Z,16.69
2022-08-29T19:26:31.979Z,16.66
2022-08-29T19:29:02.540Z,16.68
2022-08-29T19:31:29.793Z,16.57
2022-08-29T19:33:57.441Z,16.55
2022-08-29T19:36:25.700Z,16.55
2022-08-29T19:38:52.844Z,16.54
2022-08-29T19:41:20.079Z,16.60
2022-08-29T19:43:47.342Z,16.61
2022-08-29T19:46:21.500Z,16.66
2022-08-29T19:48:51.403Z,16.56
2022-08-29T19:51:25.027Z,16.49
2022-08-29T19:53:56.698Z,16.47
2022-08-29T19:56:26.481Z,16.50
2022-08-29T19:58:54.271Z,16.44
2022-08-29T20:01:21.629Z,16.50
2022-08-29T20:03:48.916Z,16.47
2022-08-29T20:06:16.196Z,16.42
2022-08-29T20:08:46.778Z,16.41
2022-08-29T20:11:19.069Z,16.39
2022-08-29T20:13:50.626Z,16.37
2022-08-29T20:16:23.299Z,16.31
2022-08-29T20:18:52.146Z,16.29
2022-08-29T20:21:21.227Z,16.20
2022-08-29T20:23:57.829Z,16.20
2022-08-29T20:26:29.209Z,16.24
2022-08-29T20:28:58.478Z,16.26
2022-08-29T20:31:27.325Z,16.30
2022-08-29T20:33:54.589Z,16.25
2022-08-29T20:36:42.280Z,16.27
2022-08-29T20:39:12.784Z,16.34
2022-08-29T20:41:40.019Z,16.42
2022-08-29T20:44:09.919Z,16.40
2022-08-29T20:46:40.367Z,16.37
2022-08-29T20:49:12.885Z,16.32
2022-08-29T20:51:44.063Z,16.28
2022-08-29T20:54:13.012Z,16.21
2022-08-29T20:56:40.274Z,16.22
2022-08-29T20:59:07.544Z,16.28
2022-08-29T21:01:36.049Z,16.25
2022-08-29T21:04:23.469Z,16.18
2022-08-29T21:07:01.917Z,16.15
2022-08-29T21:09:29.290Z,16.09
2022-08-29T21:11:57.469Z,16.04
2022-08-29T21:14:27.135Z,15.99
2022-08-29T21:16:56.896Z,16.01
2022-08-29T21:19:26.477Z,16.06
2022-08-29T21:21:53.911Z,16.09
2022-08-29T21:24:21.127Z,16.09
2022-08-29T21:26:48.406Z,16.11
2022-08-29T21:29:16.205Z,16.11
2022-08-29T21:31:43.418Z,16.18
2022-08-29T21:34:10.945Z,16.22
2022-08-29T21:36:38.977Z,16.30
2022-08-29T21:39:08.965Z,16.34
2022-08-29T21:41:42.479Z,16.26
2022-08-29T21:44:12.377Z,16.18
2022-08-29T21:46:43.371Z,16.11
2022-08-29T21:49:13.882Z,16.15
2022-08-29T21:51:41.157Z,16.20
2022-08-29T21:54:13.206Z,16.07
2022-08-29T21:56:41.221Z,16.03
2022-08-29T21:59:09.661Z,15.81
2022-08-29T22:01:41.285Z,15.69
2022-08-29T22:04:11.240Z,15.66
2022-08-29T22:06:46.447Z,15.53
2022-08-29T22:09:19.833Z,15.48
2022-08-29T22:11:49.256Z,15.54
2022-08-29T22:14:16.471Z,15.66
2022-08-29T22:16:43.592Z,15.81
2022-08-29T22:19:14.200Z,15.81
2022-08-29T22:21:47.293Z,15.70
2022-08-29T22:24:16.960Z,15.57
2022-08-29T22:26:44.610Z,15.50
2022-08-29T22:29:14.121Z,15.43
2022-08-29T22:31:42.586Z,15.37
2022-08-29T22:34:11.578Z,15.31
2022-08-29T22:36:38.806Z,15.24
2022-08-29T22:39:06.821Z,15.14
2022-08-29T22:41:34.696Z,15.09
2022-08-29T22:44:42.459Z,14.99
2022-08-29T22:46:49.880Z,14.96
2022-08-29T22:49:18.049Z,14.86
2022-08-29T22:51:45.303Z,14.82
2022-08-29T22:54:31.046Z,14.70
2022-08-29T22:57:01.234Z,14.71
2022-08-29T22:59:28.442Z,14.72
2022-08-29T23:01:55.636Z,14.66
2022-08-29T23:04:23.376Z,14.62
2022-08-29T23:06:50.750Z,14.56
2022-08-29T23:09:18.084Z,14.54
2022-08-29T23:11:45.509Z,14.59
2022-08-29T23:14:13.000Z,14.58
2022-08-29T23:16:40.553Z,14.49
2022-08-29T23:19:07.891Z,14.35
2022-08-29T23:21:35.657Z,14.31
2022-08-29T23:24:07.823Z,14.27
2022-08-29T23:26:35.246Z,14.26
2022-08-29T23:29:02.857Z,14.14
2022-08-29T23:31:30.018Z,14.17
2022-08-29T23:33:57.262Z,14.08
2022-08-29T23:36:24.364Z,14.10
2022-08-29T23:38:52.728Z,14.04
2022-08-29T23:41:20.033Z,13.96
2022-08-29T23:43:47.174Z,13.91
2022-08-29T23:46:14.649Z,13.87
2022-08-29T23:48:41.860Z,13.86
2022-08-29T23:51:11.196Z,13.84
2022-08-29T23:53:38.493Z,13.82
2022-08-29T23:56:15.444Z,13.84
2022-08-29T23:58:42.988Z,13.88
